Time;durP1;ratioP1;P1;durP2;ratioP2;P2;SDS_P1;SDS_P2;PMS_P1;PMS_P2;Temp;Humidity;BMP_temperature;BMP_pressure;BME280_temperature;BME280_humidity;BME280_pressure;Samples;Min_cycle;Max_cycle;Signal;HPM_P1;HPM_P2
2021/05/31 00:01:22;;;;;;;;;13.50;12.75;;;;;20.98;38.48;101471.78;5069522;27;45514;-70
2021/05/31 00:03:47;;;;;;;;;11.75;11.75;;;;;20.99;38.81;101474.38;5069596;27;48051;-69
2021/05/31 00:06:12;;;;;;;;;10.00;10.00;;;;;21.00;38.67;101476.13;5063929;28;45291;-71
2021/05/31 00:08:38;;;;;;;;;9.00;9.00;;;;;21.01;38.40;101471.59;5067755;28;45548;-72
2021/05/31 00:11:03;;;;;;;;;10.25;10.25;;;;;21.03;38.48;101466.97;5073315;28;45929;-69
2021/05/31 00:13:29;;;;;;;;;11.50;9.75;;;;;21.03;38.54;101472.38;5065021;28;46043;-70
2021/05/31 00:15:55;;;;;;;;;9.00;9.00;;;;;21.04;38.24;101468.72;5064598;28;45649;-70
2021/05/31 00:18:21;;;;;;;;;11.25;11.25;;;;;21.03;38.21;101462.47;5076135;28;45367;-70
2021/05/31 00:20:48;;;;;;;;;9.25;7.75;;;;;21.01;38.24;101461.69;5086029;27;45631;-70
2021/05/31 00:23:13;;;;;;;;;8.25;8.25;;;;;21.00;38.50;101472.56;5059267;28;45322;-69
2021/05/31 00:25:39;;;;;;;;;8.50;8.50;;;;;21.00;38.34;101467.16;5058239;28;45437;-71
2021/05/31 00:28:04;;;;;;;;;10.00;10.00;;;;;20.98;38.70;101466.38;5062148;28;45526;-71
2021/05/31 00:30:31;;;;;;;;;7.00;7.00;;;;;20.98;38.52;101463.69;5064307;28;45452;-68
2021/05/31 00:32:57;;;;;;;;;8.25;7.00;;;;;20.95;38.31;101461.97;5075834;28;49023;-70
2021/05/31 00:35:25;;;;;;;;;8.00;6.50;;;;;20.94;38.74;101460.25;5074494;28;46409;-70
2021/05/31 00:37:55;;;;;;;;;6.50;6.50;;;;;20.95;38.46;101461.97;5063870;27;45439;-69
2021/05/31 00:40:21;;;;;;;;;7.75;6.00;;;;;20.92;38.12;101467.56;5058868;28;45472;-71
2021/05/31 00:42:46;;;;;;;;;5.25;5.25;;;;;20.90;38.70;101455.09;5057693;28;46398;-71
2021/05/31 00:45:12;;;;;;;;;5.00;5.00;;;;;20.86;39.00;101460.66;5071030;27;45407;-70
2021/05/31 00:47:38;;;;;;;;;6.00;6.00;;;;;20.84;38.73;101459.88;5074447;27;45319;-69
2021/05/31 00:50:04;;;;;;;;;7.00;6.50;;;;;20.81;38.90;101457.31;5078132;27;45651;-68
2021/05/31 00:52:30;;;;;;;;;8.50;8.25;;;;;20.78;38.75;101451.22;5066272;27;45549;-68
2021/05/31 00:54:55;;;;;;;;;10.00;8.50;;;;;20.76;38.80;101453.13;5068305;27;45307;-68
2021/05/31 00:57:21;;;;;;;;;8.25;8.25;;;;;20.72;38.81;101449.72;5075350;27;45382;-69
2021/05/31 00:59:47;;;;;;;;;6.33;5.33;;;;;20.70;38.80;101448.91;5072069;27;45622;-69
2021/05/31 01:02:12;;;;;;;;;5.75;5.75;;;;;20.69;39.02;101446.28;5064102;27;48011;-69
2021/05/31 01:04:38;;;;;;;;;8.00;8.00;;;;;20.65;39.11;101452.81;5074948;28;45471;-69
2021/05/31 01:07:07;;;;;;;;;4.50;4.00;;;;;20.61;38.75;101449.41;5065964;27;45189;-68
2021/05/31 01:09:57;;;;;;;;;6.00;5.00;;;;;20.60;38.84;101450.38;5074452;28;45516;-69
2021/05/31 01:12:47;;;;;;;;;5.25;5.25;;;;;20.54;39.31;101445.28;5067855;27;45626;-68
2021/05/31 01:15:26;;;;;;;;;6.00;6.00;;;;;20.52;39.35;101448.06;5073811;27;45400;-69
2021/05/31 01:18:09;;;;;;;;;6.00;5.33;;;;;20.48;39.04;101445.59;5075833;27;45555;-69
2021/05/31 01:20:47;;;;;;;;;6.00;6.00;;;;;20.43;39.40;101444.94;5062741;28;45212;-69
2021/05/31 01:23:16;;;;;;;;;5.25;5.25;;;;;20.40;39.31;101445.94;5068426;27;48619;-68
2021/05/31 01:26:10;;;;;;;;;9.00;7.00;;;;;20.38;39.23;101442.47;5067042;27;45516;-71
2021/05/31 01:29:06;;;;;;;;;6.25;6.25;;;;;20.34;39.17;101432.81;5060364;28;45520;-72
2021/05/31 01:31:43;;;;;;;;;5.00;5.00;;;;;20.34;39.49;101443.59;5070128;27;45252;-68
2021/05/31 01:34:11;;;;;;;;;5.00;5.00;;;;;20.33;39.43;101438.25;5068836;28;47440;-72
2021/05/31 01:36:59;;;;;;;;;5.00;5.00;;;;;20.30;39.85;101428.50;5062305;27;45559;-70
2021/05/31 01:39:31;;;;;;;;;5.67;5.67;;;;;20.29;39.79;101435.72;5064269;27;45512;-68
2021/05/31 01:41:57;;;;;;;;;8.50;8.50;;;;;20.25;39.71;101434.13;5064995;27;45565;-68
2021/05/31 01:44:23;;;;;;;;;5.25;5.25;;;;;20.23;39.61;101429.78;5072760;27;46938;-67
2021/05/31 01:46:50;;;;;;;;;5.75;5.75;;;;;20.20;39.68;101422.72;5072389;27;45459;-68
2021/05/31 01:49:16;;;;;;;;;6.00;5.25;;;;;20.16;40.02;101428.31;5074374;27;45501;-67
2021/05/31 01:51:44;;;;;;;;;7.67;6.00;;;;;20.13;39.92;101423.97;5059750;27;45579;-70
2021/05/31 01:54:12;;;;;;;;;6.75;6.50;;;;;20.11;40.19;101423.19;5061746;27;45617;-69
2021/05/31 01:56:40;;;;;;;;;6.00;6.00;;;;;20.09;40.23;101416.13;5074172;28;46200;-69
2021/05/31 01:59:06;;;;;;;;;8.50;6.50;;;;;20.08;40.03;101419.78;5070308;27;45545;-69
2021/05/31 02:01:32;;;;;;;;;5.25;5.00;;;;;20.05;40.34;101415.38;5057722;28;45398;-69
2021/05/31 02:03:58;;;;;;;;;7.00;7.00;;;;;20.05;40.07;101417.19;5057558;28;47737;-69
2021/05/31 02:06:23;;;;;;;;;8.25;7.00;;;;;20.04;40.15;101412.78;5065144;28;45989;-68
2021/05/31 02:08:49;;;;;;;;;7.50;7.00;;;;;20.04;40.38;101407.38;5059371;27;45466;-69
2021/05/31 02:11:28;;;;;;;;;5.25;5.25;;;;;20.04;40.12;101410.94;5063348;28;45329;-68
2021/05/31 02:14:01;;;;;;;;;5.67;5.67;;;;;20.05;40.22;101409.13;5063345;28;47979;-69
2021/05/31 02:16:33;;;;;;;;;6.75;6.25;;;;;20.03;40.41;101409.19;5061664;28;45311;-69
2021/05/31 02:19:02;;;;;;;;;8.50;8.50;;;;;20.03;39.93;101406.50;5078611;27;45519;-70
2021/05/31 02:21:30;;;;;;;;;6.75;5.75;;;;;20.01;40.08;101407.53;5062736;28;45476;-68
2021/05/31 02:23:57;;;;;;;;;7.25;6.25;;;;;19.98;40.48;101406.75;5057942;28;46588;-67
2021/05/31 02:26:22;;;;;;;;;7.00;6.00;;;;;19.99;40.17;101408.50;5056313;28;45418;-68
2021/05/31 02:28:48;;;;;;;;;6.00;6.00;;;;;20.01;40.30;101407.53;5056461;28;45448;-68
2021/05/31 02:31:16;;;;;;;;;7.33;7.33;;;;;19.98;40.24;101412.13;5056605;28;45366;-68
2021/05/31 02:33:43;;;;;;;;;6.75;6.75;;;;;19.95;40.43;101404.22;5073486;27;46513;-69
2021/05/31 02:36:09;;;;;;;;;6.25;6.25;;;;;19.95;40.21;101408.72;5063662;28;45488;-69
2021/05/31 02:38:34;;;;;;;;;3.75;3.50;;;;;19.93;40.14;101405.22;5059620;28;45444;-70
2021/05/31 02:41:00;;;;;;;;;6.75;6.75;;;;;19.93;40.03;101406.09;5065437;28;46338;-71
2021/05/31 02:43:25;;;;;;;;;9.50;6.25;;;;;19.91;40.34;101407.13;5055753;28;47282;-69
2021/05/31 02:45:51;;;;;;;;;8.50;8.25;;;;;19.87;40.52;101408.22;5070887;27;45665;-69
2021/05/31 02:48:17;;;;;;;;;5.50;4.75;;;;;19.85;40.24;101413.69;5056595;27;45414;-68
2021/05/31 02:50:42;;;;;;;;;7.25;7.25;;;;;19.81;40.46;101406.69;5069243;27;45438;-70
2021/05/31 02:53:08;;;;;;;;;6.00;6.00;;;;;19.81;40.44;101413.91;5071060;28;48228;-70
2021/05/31 02:59:45;;;;;;;;;7.50;6.75;;;;;19.76;40.59;101411.44;5062585;28;45468;-68
2021/05/31 03:02:10;;;;;;;;;8.75;7.25;;;;;19.72;40.69;101412.56;5061033;28;45497;-67
2021/05/31 03:04:36;;;;;;;;;7.50;7.50;;;;;19.68;40.61;101419.00;5056538;28;46332;-69
2021/05/31 03:07:02;;;;;;;;;5.75;5.75;;;;;19.63;40.94;101423.75;5063577;28;45715;-67
2021/05/31 03:09:27;;;;;;;;;8.00;7.25;;;;;19.61;41.14;101420.28;5055512;28;45425;-68
2021/05/31 03:11:52;;;;;;;;;7.50;7.00;;;;;19.61;40.89;101422.97;5069986;28;45340;-69
2021/05/31 03:14:18;;;;;;;;;7.50;7.00;;;;;19.61;40.84;101417.56;5067243;27;46673;-69
2021/05/31 03:16:43;;;;;;;;;7.50;7.00;;;;;19.55;41.07;101413.34;5062364;28;45310;-68
2021/05/31 03:19:08;;;;;;;;;6.25;6.25;;;;;19.54;41.50;101416.06;5065716;28;45757;-68
2021/05/31 03:21:34;;;;;;;;;7.00;7.00;;;;;19.51;41.48;101424.31;5064934;28;46199;-69
2021/05/31 03:23:59;;;;;;;;;6.00;6.00;;;;;19.48;41.33;101422.63;5057186;27;46365;-70
2021/05/31 03:26:25;;;;;;;;;8.25;8.25;;;;;19.48;41.49;101419.06;5059481;28;45528;-69
2021/05/31 03:28:50;;;;;;;;;5.25;5.25;;;;;19.46;41.28;101427.22;5077489;27;45956;-69
2021/05/31 03:31:16;;;;;;;;;9.00;8.00;;;;;19.44;41.43;101422.84;5063718;28;45317;-69
2021/05/31 03:33:41;;;;;;;;;7.25;7.25;;;;;19.40;41.56;101428.38;5065353;28;46195;-68
2021/05/31 03:36:07;;;;;;;;;7.50;6.00;;;;;19.40;41.30;101424.81;5071315;28;46092;-70
2021/05/31 03:38:32;;;;;;;;;7.00;7.00;;;;;19.38;41.29;101422.19;5065465;28;45266;-68
2021/05/31 03:40:57;;;;;;;;;9.00;7.25;;;;;19.39;41.32;101428.44;5060347;27;45532;-69
2021/05/31 03:43:23;;;;;;;;;6.50;6.50;;;;;19.40;41.56;101427.50;5073674;27;46328;-67
2021/05/31 03:45:48;;;;;;;;;8.75;8.00;;;;;19.39;41.47;101429.31;5062232;28;45361;-69
2021/05/31 03:51:35;;;;;;;;;6.50;6.50;;;;;19.37;41.24;101438.41;5070325;28;45558;-69
2021/05/31 03:54:01;;;;;;;;;6.75;6.75;;;;;19.38;41.66;101435.66;5074619;27;46465;-68
2021/05/31 03:56:26;;;;;;;;;8.50;8.50;;;;;19.36;41.40;101440.25;5074123;28;46138;-72
2021/05/31 03:58:53;;;;;;;;;7.25;7.00;;;;;19.35;41.20;101438.50;5070090;27;45423;-70
2021/05/31 04:01:19;;;;;;;;;8.50;8.50;;;;;19.34;41.47;101438.56;5063868;27;45396;-69
2021/05/31 04:03:49;;;;;;;;;9.00;9.00;;;;;19.31;41.37;101442.28;5073016;28;47595;-68
2021/05/31 04:11:42;;;;;;;;;8.00;8.00;;;;;19.26;41.34;101449.69;5058498;28;45585;-69
2021/05/31 04:14:13;;;;;;;;;7.25;7.25;;;;;19.23;41.28;101447.13;5068195;28;46570;-68
2021/05/31 04:16:40;;;;;;;;;7.25;7.25;;;;;19.18;41.53;101441.06;5063445;28;45503;-69
2021/05/31 04:19:08;;;;;;;;;6.75;6.75;;;;;19.17;41.26;101441.16;5063920;28;45403;-68
2021/05/31 04:21:35;;;;;;;;;9.75;7.50;;;;;19.16;41.79;101440.28;5064357;28;45381;-68
2021/05/31 04:24:01;;;;;;;;;6.75;6.75;;;;;19.15;41.57;101440.34;5082408;27;47532;-69
2021/05/31 04:26:26;;;;;;;;;7.50;7.50;;;;;19.13;42.08;101442.25;5064508;27;45390;-70
2021/05/31 04:28:52;;;;;;;;;6.25;6.25;;;;;19.10;41.81;101440.56;5062554;27;45530;-70
2021/05/31 04:31:17;;;;;;;;;9.00;7.75;;;;;19.10;42.01;101437.88;5071296;27;45621;-69
2021/05/31 04:33:43;;;;;;;;;10.00;10.00;;;;;19.10;41.87;101425.31;5071958;27;45432;-71
2021/05/31 04:36:09;;;;;;;;;9.25;8.25;;;;;19.13;41.99;101436.84;5075044;27;45808;-69
2021/05/31 04:38:34;;;;;;;;;7.50;7.50;;;;;19.14;41.80;101433.22;5072329;27;45913;-71
2021/05/31 04:41:00;;;;;;;;;5.00;5.00;;;;;19.12;42.05;101433.31;5065731;27;45671;-69
2021/05/31 04:43:26;;;;;;;;;6.75;6.75;;;;;19.15;41.66;101435.84;5071700;27;48469;-69
2021/05/31 04:45:51;;;;;;;;;6.75;6.75;;;;;19.14;41.84;101434.09;5059170;27;45518;-69
2021/05/31 04:48:17;;;;;;;;;9.00;9.00;;;;;19.11;41.94;101432.44;5075336;27;45490;-68
2021/05/31 04:50:42;;;;;;;;;8.50;8.50;;;;;19.14;42.02;101431.41;5063175;27;45419;-68
2021/05/31 04:53:08;;;;;;;;;10.00;7.75;;;;;19.18;42.00;101433.00;5071445;27;46438;-68
2021/05/31 04:55:35;;;;;;;;;8.25;8.25;;;;;19.19;41.74;101432.09;5066203;27;45433;-69
2021/05/31 04:58:01;;;;;;;;;7.50;7.50;;;;;19.20;41.83;101438.34;5069365;27;46075;-68
2021/05/31 05:00:26;;;;;;;;;7.75;7.75;;;;;19.20;41.67;101431.13;5071779;27;45381;-68
2021/05/31 05:02:52;;;;;;;;;8.25;8.00;;;;;19.21;41.89;101432.88;5074242;28;46317;-71
2021/05/31 05:05:17;;;;;;;;;9.50;8.00;;;;;19.24;41.44;101437.25;5058215;28;45174;-70
2021/05/31 05:07:46;;;;;;;;;8.50;7.75;;;;;19.22;41.44;101426.56;5066121;28;45481;-69
2021/05/31 05:10:19;;;;;;;;;7.25;7.00;;;;;19.20;41.50;101433.84;5071333;27;45525;-69
2021/05/31 05:12:47;;;;;;;;;11.00;11.00;;;;;19.22;41.80;101433.75;5058089;28;45549;-70
2021/05/31 05:15:14;;;;;;;;;10.50;10.50;;;;;19.21;41.55;101429.31;5056137;28;45746;-70
2021/05/31 05:17:40;;;;;;;;;11.00;9.50;;;;;19.24;42.04;101434.56;5060715;28;45509;-69
2021/05/31 05:20:06;;;;;;;;;8.25;8.25;;;;;19.21;41.83;101427.50;5060626;28;45425;-72
2021/05/31 05:22:31;;;;;;;;;7.00;6.00;;;;;19.23;41.83;101427.44;5074386;27;47432;-70
2021/05/31 05:24:57;;;;;;;;;11.50;10.25;;;;;19.25;41.88;101429.09;5069887;28;46107;-72
2021/05/31 05:27:23;;;;;;;;;10.00;9.50;;;;;19.24;41.53;101421.09;5072132;28;45306;-71
2021/05/31 05:29:49;;;;;;;;;10.75;9.50;;;;;19.24;41.67;101421.09;5069637;28;45646;-70
2021/05/31 05:32:14;;;;;;;;;11.75;10.25;;;;;19.24;41.80;101424.66;5074185;28;45584;-67
2021/05/31 05:34:40;;;;;;;;;10.75;9.00;;;;;19.27;41.64;101423.63;5074074;28;45840;-68
2021/05/31 05:37:16;;;;;;;;;9.25;9.00;;;;;19.28;41.68;101420.88;5069034;27;45719;-71
2021/05/31 05:47:42;;;;;;;;;10.00;10.00;;;;;19.38;41.74;101424.00;5062640;27;45694;-68
2021/05/31 05:50:09;;;;;;;;;11.50;8.50;;;;;19.39;41.40;101432.00;5060811;27;45551;-69
2021/05/31 05:52:36;;;;;;;;;9.00;9.00;;;;;19.44;41.50;101425.53;5065685;28;45705;-70
2021/05/31 05:55:03;;;;;;;;;11.75;9.75;;;;;19.46;41.38;101427.22;5072131;27;45574;-68
2021/05/31 05:57:28;;;;;;;;;10.00;10.00;;;;;19.49;41.27;101428.91;5069380;27;45321;-69
2021/05/31 05:59:53;;;;;;;;;10.75;10.75;;;;;19.51;41.34;101425.19;5069037;27;46486;-72
2021/05/31 06:02:19;;;;;;;;;11.25;10.25;;;;;19.55;41.22;101420.53;5062310;27;45381;-68
2021/05/31 06:04:45;;;;;;;;;7.25;7.25;;;;;19.54;41.30;101418.78;5063942;27;45681;-70
2021/05/31 06:07:10;;;;;;;;;9.00;9.00;;;;;19.55;41.19;101425.94;5069187;27;45639;-70
2021/05/31 06:09:36;;;;;;;;;11.25;10.50;;;;;19.51;41.11;101422.50;5069417;27;45491;-71
2021/05/31 06:12:01;;;;;;;;;11.25;10.00;;;;;19.50;40.97;101412.66;5072475;27;48238;-70
2021/05/31 06:14:27;;;;;;;;;9.25;9.00;;;;;19.53;41.26;101422.41;5083096;27;45966;-73
2021/05/31 06:16:52;;;;;;;;;8.25;8.25;;;;;19.57;41.12;101410.59;5070827;27;45501;-70
2021/05/31 06:19:18;;;;;;;;;13.75;13.75;;;;;19.61;41.19;101410.38;5064267;27;45420;-70
2021/05/31 06:21:43;;;;;;;;;8.50;8.25;;;;;19.66;40.96;101412.81;5075959;27;45717;-69
2021/05/31 06:24:11;;;;;;;;;14.00;9.75;;;;;19.67;40.67;101415.44;5086182;27;46175;-70
2021/05/31 06:26:36;;;;;;;;;10.75;9.25;;;;;19.72;40.67;101419.75;5073770;27;45492;-70
2021/05/31 06:29:02;;;;;;;;;9.25;9.00;;;;;19.72;40.83;101417.94;5058709;28;45291;-72
2021/05/31 06:31:27;;;;;;;;;8.00;8.00;;;;;19.76;40.69;101421.34;5063035;28;47438;-70
2021/05/31 06:33:53;;;;;;;;;7.00;6.00;;;;;19.77;40.27;101423.09;5070060;28;46285;-73
2021/05/31 06:36:18;;;;;;;;;8.00;7.50;;;;;19.80;39.98;101425.63;5059758;27;45461;-71
2021/05/31 06:38:43;;;;;;;;;6.25;6.25;;;;;19.84;40.12;101419.16;5069643;28;45582;-68
2021/05/31 06:41:09;;;;;;;;;5.00;5.00;;;;;19.86;40.02;101417.25;5056693;27;48473;-69
2021/05/31 06:43:34;;;;;;;;;9.00;8.00;;;;;19.88;40.05;101420.75;5064511;27;45330;-68
2021/05/31 06:46:01;;;;;;;;;8.75;8.75;;;;;19.92;39.82;101422.31;5060617;28;45617;-68
2021/05/31 06:48:27;;;;;;;;;7.25;7.00;;;;;19.96;39.32;101415.88;5061665;27;46529;-70
2021/05/31 06:50:53;;;;;;;;;6.25;6.25;;;;;19.98;39.23;101406.75;5060653;27;46126;-70
2021/05/31 06:53:19;;;;;;;;;9.25;7.75;;;;;20.03;39.25;101419.97;5061441;27;45371;-69
2021/05/31 06:55:45;;;;;;;;;7.00;6.00;;;;;20.04;39.32;101407.38;5067720;27;45481;-70
2021/05/31 06:58:11;;;;;;;;;7.50;7.50;;;;;20.09;38.87;101413.44;5063915;27;45409;-68
2021/05/31 07:00:37;;;;;;;;;7.00;7.00;;;;;20.12;38.56;101410.56;5067538;28;45499;-69
2021/05/31 07:03:02;;;;;;;;;9.00;7.25;;;;;20.19;38.84;101414.69;5062823;27;45548;-69
2021/05/31 07:05:28;;;;;;;;;7.00;7.00;;;;;20.22;38.26;101414.56;5067771;27;45562;-68
2021/05/31 07:07:54;;;;;;;;;5.67;5.67;;;;;20.24;38.12;101408.13;5059868;27;47725;-72
2021/05/31 07:10:27;;;;;;;;;6.50;6.50;;;;;20.27;38.09;101399.00;5061653;28;47267;-68
2021/05/31 07:12:53;;;;;;;;;6.50;6.50;;;;;20.29;37.54;101402.50;5067148;28;45535;-69
2021/05/31 07:15:19;;;;;;;;;5.67;5.67;;;;;20.34;37.93;101404.97;5062714;27;45463;-68
2021/05/31 07:17:45;;;;;;;;;7.00;7.00;;;;;20.38;37.61;101393.94;5057164;28;45592;-69
2021/05/31 07:20:13;;;;;;;;;6.00;6.00;;;;;20.40;37.58;101397.44;5069828;28;47871;-68
2021/05/31 07:22:39;;;;;;;;;7.00;7.00;;;;;20.41;37.19;101398.28;5062101;28;45390;-69
2021/05/31 07:25:07;;;;;;;;;6.00;6.00;;;;;20.43;37.38;101396.41;5067994;28;45381;-70
2021/05/31 07:27:33;;;;;;;;;6.50;6.50;;;;;20.46;37.79;101390.91;5069725;28;45593;-68
2021/05/31 07:29:58;;;;;;;;;7.00;6.00;;;;;20.51;37.18;101396.91;5062427;27;46894;-67
2021/05/31 07:32:24;;;;;;;;;7.25;7.25;;;;;20.55;36.71;101393.97;5077342;27;45444;-72
2021/05/31 07:34:49;;;;;;;;;6.25;6.25;;;;;20.59;36.96;101396.53;5072729;28;45452;-68
2021/05/31 07:37:14;;;;;;;;;5.75;5.75;;;;;20.62;37.45;101396.34;5072156;27;45539;-68
2021/05/31 07:39:40;;;;;;;;;4.50;4.50;;;;;20.65;37.42;101393.47;5067792;27;45602;-68
2021/05/31 07:42:06;;;;;;;;;5.75;5.75;;;;;20.69;36.85;101395.91;5059077;27;45476;-66
2021/05/31 07:44:32;;;;;;;;;5.75;5.00;;;;;20.72;36.95;101394.91;5073635;27;45715;-69
2021/05/31 07:46:57;;;;;;;;;5.50;5.00;;;;;20.76;36.43;101393.78;5059903;27;45524;-69
2021/05/31 07:49:23;;;;;;;;;5.25;5.25;;;;;20.80;36.84;101395.34;5058791;28;45867;-67
2021/05/31 07:51:50;;;;;;;;;7.00;7.00;;;;;20.83;36.37;101388.00;5059386;28;45305;-67
2021/05/31 07:54:16;;;;;;;;;7.00;7.00;;;;;20.84;36.40;101392.44;5072324;27;45357;-69
2021/05/31 07:56:42;;;;;;;;;6.00;6.00;;;;;20.86;36.52;101379.72;5068791;28;45539;-68
2021/05/31 07:59:07;;;;;;;;;5.75;5.00;;;;;20.86;36.29;101379.72;5063339;27;46023;-70
2021/05/31 08:01:35;;;;;;;;;7.00;6.00;;;;;20.89;36.42;101377.81;5064534;27;45611;-67
2021/05/31 08:04:03;;;;;;;;;7.00;5.75;;;;;20.90;35.99;101385.81;5072210;27;45551;-68
2021/05/31 08:06:28;;;;;;;;;6.50;6.50;;;;;20.95;35.69;101390.97;5064738;28;45617;-67
2021/05/31 08:08:54;;;;;;;;;6.25;5.25;;;;;20.99;35.72;101385.34;5053754;27;45992;-69
2021/05/31 08:11:19;;;;;;;;;7.50;6.00;;;;;21.03;35.85;101386.03;5062047;27;45561;-68
2021/05/31 08:13:45;;;;;;;;;5.00;5.00;;;;;21.08;35.53;101392.03;5060472;28;45580;-68
2021/05/31 08:16:11;;;;;;;;;9.00;7.50;;;;;21.11;35.64;101389.19;5060053;27;45362;-67
2021/05/31 08:18:37;;;;;;;;;6.00;6.00;;;;;21.16;35.53;101387.97;5067425;28;45811;-69
2021/05/31 08:21:03;;;;;;;;;6.00;6.00;;;;;21.20;35.87;101374.28;5059190;28;45424;-68
2021/05/31 08:23:29;;;;;;;;;6.00;6.00;;;;;21.25;35.28;101377.63;5069046;28;45628;-72
2021/05/31 08:25:55;;;;;;;;;6.00;6.00;;;;;21.28;35.27;101377.47;5065986;28;45481;-67
2021/05/31 08:28:20;;;;;;;;;6.00;6.00;;;;;21.31;34.73;101363.81;5072103;27;48396;-68
2021/05/31 08:30:46;;;;;;;;;5.75;5.75;;;;;21.32;34.99;101360.16;5061693;27;45550;-68
2021/05/31 08:33:12;;;;;;;;;5.00;5.00;;;;;21.32;35.33;101358.31;5069328;27;45437;-68
2021/05/31 08:35:42;;;;;;;;;5.00;5.00;;;;;21.35;34.62;101349.19;5062967;27;45322;-67
2021/05/31 08:38:08;;;;;;;;;6.00;6.00;;;;;21.39;34.37;101357.03;5084188;27;47786;-66
2021/05/31 08:40:34;;;;;;;;;7.25;7.25;;;;;21.42;34.33;101356.84;5070079;27;46128;-69
2021/05/31 08:43:00;;;;;;;;;6.75;6.00;;;;;21.46;34.59;101352.13;5065200;27;45519;-70
2021/05/31 08:45:29;;;;;;;;;10.75;9.25;;;;;21.50;34.04;101342.03;5070769;27;45433;-72
2021/05/31 08:47:55;;;;;;;;;6.00;6.00;;;;;21.54;33.82;101349.00;5060643;27;47638;-68
2021/05/31 08:50:24;;;;;;;;;7.50;6.50;;;;;21.56;33.98;101336.28;5064317;27;45555;-70
2021/05/31 08:52:51;;;;;;;;;9.00;8.00;;;;;21.59;33.94;101345.06;5060488;27;45479;-70
2021/05/31 08:55:19;;;;;;;;;7.00;6.00;;;;;21.60;33.64;101340.56;5066203;27;45465;-68
2021/05/31 08:57:47;;;;;;;;;5.00;5.00;;;;;21.63;33.71;101343.94;5062738;27;48101;-68
2021/05/31 09:00:14;;;;;;;;;7.50;7.00;;;;;21.66;33.67;101338.38;5067526;27;45279;-72
2021/05/31 09:02:40;;;;;;;;;5.00;4.75;;;;;21.72;33.25;101339.81;5066566;27;45515;-70
2021/05/31 09:05:07;;;;;;;;;5.00;5.00;;;;;21.73;33.56;101328.97;5067699;27;45449;-70
2021/05/31 09:07:33;;;;;;;;;7.75;7.75;;;;;21.76;33.06;101333.31;5075026;27;48517;-71
2021/05/31 09:09:58;;;;;;;;;7.00;7.00;;;;;21.79;33.37;101341.22;5074043;27;45342;-72
2021/05/31 09:12:29;;;;;;;;;6.00;6.00;;;;;21.82;33.31;101337.47;5067589;27;45696;-69
2021/05/31 09:15:06;;;;;;;;;6.50;6.50;;;;;21.84;33.50;101325.59;5066578;27;45486;-69
2021/05/31 09:17:33;;;;;;;;;6.50;6.50;;;;;21.86;33.70;101323.69;5073939;28;48031;-68
2021/05/31 09:20:00;;;;;;;;;7.75;7.75;;;;;21.90;33.36;101332.50;5074835;27;45266;-69
2021/05/31 09:22:27;;;;;;;;;7.00;7.00;;;;;21.94;33.30;101326.81;5058849;27;45375;-69
2021/05/31 09:24:58;;;;;;;;;6.75;5.00;;;;;21.99;32.75;101326.53;5070808;27;45597;-68
2021/05/31 09:27:26;;;;;;;;;6.00;4.75;;;;;22.02;33.34;101329.94;5075342;27;48602;-69
2021/05/31 09:30:01;;;;;;;;;7.25;7.00;;;;;22.06;33.32;101327.06;5062494;27;45388;-69
2021/05/31 09:32:27;;;;;;;;;7.00;6.00;;;;;22.10;33.99;101320.50;5063641;27;45366;-69
2021/05/31 09:35:23;;;;;;;;;7.00;7.00;;;;;22.15;33.74;101324.69;5061060;27;45499;-70
2021/05/31 09:37:50;;;;;;;;;4.00;4.00;;;;;22.16;33.40;101318.31;5076538;27;46036;-68
2021/05/31 09:40:22;;;;;;;;;8.00;8.00;;;;;22.18;33.03;101316.38;5076087;27;45337;-67
2021/05/31 09:42:51;;;;;;;;;6.00;6.00;;;;;22.19;32.95;101318.13;5058174;27;45409;-69
2021/05/31 09:45:17;;;;;;;;;6.75;6.75;;;;;22.20;32.40;101324.41;5069537;27;45253;-68
2021/05/31 09:47:43;;;;;;;;;5.75;5.75;;;;;22.18;32.66;101321.78;5067592;27;45526;-69
2021/05/31 09:50:10;;;;;;;;;7.00;6.00;;;;;22.20;32.18;101313.59;5066725;27;45534;-68
2021/05/31 09:52:36;;;;;;;;;6.25;5.75;;;;;22.22;32.65;101320.63;5061202;27;45440;-67
2021/05/31 09:55:09;;;;;;;;;8.00;6.25;;;;;22.26;32.58;101311.41;5073468;28;45442;-66
2021/05/31 09:57:36;;;;;;;;;4.25;4.25;;;;;22.29;32.01;101321.16;5068066;27;47251;-67
2021/05/31 10:00:14;;;;;;;;;5.25;4.25;;;;;22.33;32.31;101328.09;5063382;28;46202;-67
2021/05/31 10:05:39;;;;;;;;;5.00;5.00;;;;;22.42;32.10;101318.56;5068263;27;45859;-68
2021/05/31 10:10:50;;;;;;;;;7.00;7.00;;;;;22.49;31.50;101311.81;5064918;27;45523;-67
2021/05/31 10:13:18;;;;;;;;;5.75;5.75;;;;;22.53;30.92;101318.78;5060709;27;45702;-70
2021/05/31 10:15:44;;;;;;;;;7.00;7.00;;;;;22.54;31.41;101325.91;5067309;27;45317;-67
2021/05/31 10:18:13;;;;;;;;;6.50;6.50;;;;;22.58;32.35;101314.81;5068562;28;45414;-71
2021/05/31 10:20:40;;;;;;;;;10.00;9.00;;;;;22.63;32.06;101314.53;5063728;27;45688;-70
2021/05/31 10:23:07;;;;;;;;;6.75;6.75;;;;;22.67;31.43;101312.50;5072142;27;45426;-67
2021/05/31 10:25:35;;;;;;;;;10.00;10.00;;;;;22.69;31.06;101315.97;5071856;27;45484;-68
2021/05/31 10:28:06;;;;;;;;;6.75;6.75;;;;;22.73;31.11;101306.69;5069360;27;46756;-67
2021/05/31 10:30:42;;;;;;;;;8.25;7.50;;;;;22.77;30.81;101302.84;5072667;28;45578;-67
2021/05/31 10:33:16;;;;;;;;;7.00;7.00;;;;;22.81;30.16;101294.41;5068736;27;45564;-69
2021/05/31 10:35:42;;;;;;;;;6.75;6.75;;;;;22.86;31.52;101308.53;5071966;27;45573;-73
2021/05/31 10:38:19;;;;;;;;;8.75;8.00;;;;;22.91;30.50;101300.16;5068732;27;48248;-64
2021/05/31 10:40:47;;;;;;;;;7.25;7.25;;;;;22.95;31.25;101298.13;5069000;27;45986;-65
2021/05/31 10:43:15;;;;;;;;;7.00;7.00;;;;;22.98;30.64;101306.03;5072156;27;45508;-66
2021/05/31 10:45:42;;;;;;;;;6.00;6.00;;;;;23.00;30.27;101302.28;5070086;28;45519;-66
2021/05/31 10:48:14;;;;;;;;;6.00;6.00;;;;;23.04;30.09;101303.81;5069626;27;45711;-72
2021/05/31 10:50:47;;;;;;;;;5.00;5.00;;;;;23.06;30.17;101299.16;5061613;27;45824;-67
2021/05/31 10:53:19;;;;;;;;;6.00;6.00;;;;;23.08;30.27;101289.09;5061709;28;45295;-66
2021/05/31 10:56:12;;;;;;;;;8.25;6.50;;;;;23.12;30.08;101298.78;5067411;27;45467;-72
2021/05/31 10:58:47;;;;;;;;;5.75;5.75;;;;;23.16;30.25;101291.31;5070814;27;47099;-71
2021/05/31 11:01:18;;;;;;;;;9.00;9.00;;;;;23.18;29.85;101283.97;5069182;28;46338;-75
2021/05/31 11:03:44;;;;;;;;;8.25;8.25;;;;;23.20;30.24;101298.25;5068359;27;45506;-71
2021/05/31 11:06:30;;;;;;;;;7.00;6.25;;;;;23.23;30.73;101287.22;5072580;27;45464;-71
2021/05/31 11:09:19;;;;;;;;;6.50;5.50;;;;;23.28;30.44;101281.53;5064478;28;45516;-69
2021/05/31 11:11:54;;;;;;;;;5.50;5.50;;;;;23.30;30.61;101285.88;5068588;28;45528;-71
2021/05/31 11:14:40;;;;;;;;;9.75;6.00;;;;;23.38;30.56;101275.41;5064589;28;45334;-70
2021/05/31 11:17:11;;;;;;;;;8.00;8.00;;;;;23.46;30.34;101274.88;5082800;27;45432;-73
2021/05/31 11:19:43;;;;;;;;;9.00;8.50;;;;;23.46;30.32;101270.31;5070826;28;47590;-70
2021/05/31 11:22:12;;;;;;;;;5.00;5.00;;;;;23.48;30.75;101262.97;5061048;27;46389;-74
2021/05/31 11:24:37;;;;;;;;;7.75;6.00;;;;;23.48;30.10;101259.38;5065693;27;45569;-77
2021/05/31 11:27:03;;;;;;;;;7.00;6.75;;;;;23.47;30.44;101258.53;5069891;27;45646;-82
2021/05/31 11:29:29;;;;;;;;;6.00;6.00;;;;;23.46;29.99;101256.78;5079416;27;49362;-75
2021/05/31 11:31:54;;;;;;;;;6.75;6.50;;;;;23.47;30.04;101253.09;5072098;27;45812;-77
2021/05/31 11:34:20;;;;;;;;;8.00;6.75;;;;;23.51;30.36;101263.75;5069969;28;45509;-74
2021/05/31 11:36:45;;;;;;;;;5.75;5.75;;;;;23.55;30.12;101251.72;5072020;28;45452;-76
2021/05/31 11:39:14;;;;;;;;;9.50;8.50;;;;;23.57;30.54;101242.53;5062598;27;47278;-77
2021/05/31 11:41:50;;;;;;;;;8.00;8.00;;;;;23.60;30.14;101239.63;5057146;28;47120;-73
2021/05/31 11:44:33;;;;;;;;;18.25;17.00;;;;;23.62;30.55;101229.53;5063149;28;45478;-71
2021/05/31 11:47:01;;;;;;;;;11.00;9.75;;;;;23.66;30.03;101236.53;5061100;27;45952;-73
2021/05/31 11:49:28;;;;;;;;;9.50;9.50;;;;;23.66;30.33;101228.38;5078160;27;46702;-70
2021/05/31 11:51:59;;;;;;;;;22.75;20.50;;;;;23.72;30.49;101232.50;5061754;27;45569;-70
2021/05/31 11:54:27;;;;;;;;;8.75;8.75;;;;;23.76;30.18;101234.06;5065195;27;45679;-70